Time;durP1;ratioP1;P1;durP2;ratioP2;P2;SDS_P1;SDS_P2;PMS_P1;PMS_P2;Temp;Humidity;BMP_temperature;BMP_pressure;BME280_temperature;BME280_humidity;BME280_pressure;Samples;Min_cycle;Max_cycle;Signal;HPM_P1;HPM_P2
2023/01/08 00:01:48;;;;;;;18.80;7.10;;;;;;;-8.96;55.22;100887.77;24562;1326;3026634;-64
2023/01/08 00:04:18;;;;;;;20.40;7.20;;;;;;;-9.11;56.09;100891.08;24607;1326;3052594;-66
2023/01/08 00:06:47;;;;;;;20.20;8.50;;;;;;;-9.07;56.01;100892.74;24567;1329;3028557;-64
2023/01/08 00:09:16;;;;;;;18.70;8.00;;;;;;;-9.11;56.44;100899.02;24667;1319;3025486;-66
2023/01/08 00:11:48;;;;;;;22.40;8.60;;;;;;;-9.16;56.60;100901.20;24551;1327;3051663;-67
2023/01/08 00:14:17;;;;;;;18.60;7.70;;;;;;;-9.36;56.78;100901.20;24560;1336;3028678;-63
2023/01/08 00:16:45;;;;;;;26.80;8.70;;;;;;;-9.26;57.00;100908.43;24613;1319;3029828;-71
2023/01/08 00:19:17;;;;;;;21.60;7.80;;;;;;;-9.14;56.73;100906.73;24560;1337;3054973;-62
2023/01/08 00:21:46;;;;;;;18.90;7.90;;;;;;;-9.26;56.37;100910.63;24638;1320;3026372;-63
2023/01/08 00:24:15;;;;;;;21.80;7.20;;;;;;;-9.36;56.95;100916.85;24590;1319;3025991;-68
2023/01/08 00:26:45;;;;;;;18.70;7.70;;;;;;;-9.36;57.33;100919.02;24616;1336;3052064;-64
2023/01/08 00:29:15;;;;;;;18.10;7.70;;;;;;;-9.27;57.13;100919.91;24617;1326;3026016;-67
2023/01/08 00:31:44;;;;;;;22.10;7.80;;;;;;;-9.18;56.98;100918.95;24642;1312;3028787;-68
2023/01/08 00:34:13;;;;;;;16.50;7.10;;;;;;;-9.18;56.86;100916.08;24689;1312;3026279;-65
2023/01/08 00:36:42;;;;;;;20.40;7.80;;;;;;;-9.21;56.95;100914.25;24594;1327;3048953;-63
2023/01/08 00:39:11;;;;;;;21.00;8.20;;;;;;;-9.29;56.99;100917.13;24692;1326;3027261;-67
2023/01/08 00:41:43;;;;;;;19.00;6.20;;;;;;;-9.31;56.99;100917.04;24630;1327;3052483;-63
2023/01/08 00:44:13;;;;;;;20.50;7.30;;;;;;;-9.37;57.16;100910.14;24564;1327;3027441;-66
2023/01/08 00:46:42;;;;;;;18.20;5.80;;;;;;;-9.40;57.62;100908.34;24611;1325;3028389;-64
2023/01/08 00:49:10;;;;;;;15.30;6.30;;;;;;;-9.32;57.03;100909.52;24566;1327;3052506;-67
2023/01/08 00:51:40;;;;;;;20.00;6.70;;;;;;;-9.33;56.49;100908.77;24608;1336;3026179;-63
2023/01/08 00:54:10;;;;;;;17.90;6.00;;;;;;;-9.39;56.31;100913.31;24580;1319;3025731;-64
2023/01/08 08:16:03;;;;;;;12.90;5.40;;;;;;;-8.14;50.22;101041.77;80071;1300;3012946;-64
2023/01/08 08:18:30;;;;;;;10.90;5.30;;;;;;;-8.09;50.05;101042.33;78916;1303;3014548;-63
2023/01/08 08:20:57;;;;;;;12.70;5.40;;;;;;;-7.94;49.60;101036.95;78858;1301;3011589;-64
2023/01/08 08:23:26;;;;;;;13.60;5.20;;;;;;;-8.05;49.42;101033.46;77868;1306;3052487;-65
2023/01/08 08:25:54;;;;;;;16.20;5.70;;;;;;;-8.12;49.80;101036.08;79085;1306;3021089;-63
2023/01/08 08:28:20;;;;;;;15.30;5.20;;;;;;;-8.23;50.16;101038.38;77906;1297;3013285;-65
2023/01/08 08:30:49;;;;;;;10.40;5.10;;;;;;;-8.23;49.99;101034.96;78209;1302;3050078;-65
2023/01/08 08:33:16;;;;;;;15.80;6.00;;;;;;;-8.04;50.35;101035.54;79629;1297;3011504;-65
2023/01/08 08:35:47;;;;;;;17.00;5.60;;;;;;;-7.99;50.40;101027.41;79489;1296;3011867;-64
2023/01/08 08:38:16;;;;;;;13.70;4.80;;;;;;;-8.19;50.60;101026.11;78158;1300;3053037;-63
2023/01/08 08:40:43;;;;;;;13.00;5.50;;;;;;;-8.03;50.51;101024.52;79351;1295;3013337;-64
2023/01/08 08:43:09;;;;;;;12.10;5.40;;;;;;;-7.91;50.07;101020.94;79211;1300;3012922;-65
2023/01/08 08:45:39;;;;;;;11.90;4.80;;;;;;;-7.71;49.55;101021.02;78163;1300;3049190;-69
2023/01/08 08:48:06;;;;;;;12.90;5.30;;;;;;;-7.67;48.59;101016.05;79440;1298;3013142;-65
2023/01/08 08:50:33;;;;;;;13.30;5.80;;;;;;;-7.71;47.94;101016.08;79487;1295;3013067;-67
2023/01/08 08:53:01;;;;;;;10.70;4.20;;;;;;;-7.60;47.19;101017.83;78154;1299;3028056;-68
2023/01/08 08:55:28;;;;;;;15.00;5.50;;;;;;;-7.63;47.33;101016.05;79299;1295;3012791;-66
2023/01/08 08:58:01;;;;;;;13.00;4.90;;;;;;;-7.61;47.85;101014.77;79425;1300;3011826;-65
2023/01/08 09:00:29;;;;;;;13.10;5.00;;;;;;;-7.53;47.56;101016.91;78256;1297;3049812;-66
2023/01/08 09:02:56;;;;;;;18.50;6.20;;;;;;;-7.40;47.76;101012.81;79537;1297;3013865;-63
2023/01/08 09:05:23;;;;;;;12.60;5.00;;;;;;;-7.30;47.53;101007.25;79246;1297;3011668;-60
2023/01/08 09:07:53;;;;;;;14.60;5.60;;;;;;;-7.27;47.87;101009.88;78060;1299;3028510;-64
2023/01/08 09:10:21;;;;;;;14.80;6.00;;;;;;;-7.32;47.36;101008.01;79515;1297;3013199;-57
2023/01/08 09:12:51;;;;;;;14.10;5.70;;;;;;;-7.21;48.76;101008.06;78861;1295;3011574;-63
2023/01/08 09:15:18;;;;;;;11.70;5.00;;;;;;;-7.11;48.33;101007.05;79330;1294;3013171;-66
2023/01/08 09:17:44;;;;;;;10.40;5.40;;;;;;;-6.92;47.60;101007.04;79313;1300;3011451;-61
2023/01/08 09:20:12;;;;;;;13.40;4.80;;;;;;;-6.84;47.12;101008.34;78262;1297;3049045;-67
2023/01/08 09:22:39;;;;;;;10.90;4.50;;;;;;;-6.68;46.51;101003.23;79301;1299;3013827;-61
2023/01/08 09:25:06;;;;;;;14.30;5.60;;;;;;;-6.86;46.67;101003.67;79232;1297;3011840;-64
2023/01/08 09:27:34;;;;;;;14.70;5.00;;;;;;;-6.69;46.59;101001.71;78179;1300;3049572;-62
2023/01/08 09:30:01;;;;;;;16.20;5.70;;;;;;;-6.63;46.73;100997.63;79451;1297;3013025;-69
2023/01/08 09:32:27;;;;;;;14.40;5.80;;;;;;;-6.60;46.63;100993.83;79855;1296;3011498;-66
2023/01/08 09:34:55;;;;;;;16.60;5.20;;;;;;;-6.55;46.58;100988.19;78249;1297;3026527;-67
2023/01/08 09:37:22;;;;;;;15.40;5.50;;;;;;;-6.49;46.13;100984.80;79420;1300;3016013;-69
2023/01/08 09:39:49;;;;;;;13.00;5.20;;;;;;;-6.42;45.42;100985.21;79437;1298;3013073;-71
2023/01/08 09:42:21;;;;;;;11.30;5.20;;;;;;;-6.32;45.41;100984.35;78239;1298;3026196;-66
2023/01/08 09:44:49;;;;;;;14.00;4.80;;;;;;;-6.20;45.38;100983.33;79483;1297;3011672;-64
2023/01/08 09:47:30;;;;;;;14.10;5.20;;;;;;;-6.23;45.26;100976.41;78188;1296;3048471;-71
2023/01/08 09:50:00;;;;;;;13.80;4.30;;;;;;;-6.17;45.16;100972.50;78173;1298;3053114;-71
2023/01/08 09:52:27;;;;;;;8.50;5.00;;;;;;;-6.16;45.15;100970.01;79439;1295;3011889;-71
2023/01/08 09:54:56;;;;;;;18.30;4.90;;;;;;;-6.08;45.86;100966.82;79022;1302;3011640;-70
2023/01/08 09:57:23;;;;;;;12.50;4.90;;;;;;;-6.10;45.10;100972.23;79474;1297;3014107;-68
2023/01/08 09:59:49;;;;;;;16.40;6.20;;;;;;;-6.13;46.27;100970.25;79439;1297;3012062;-72
2023/01/08 10:02:21;;;;;;;13.50;6.20;;;;;;;-5.95;46.43;100969.27;78271;1295;3027399;-69
2023/01/08 10:04:54;;;;;;;13.60;5.30;;;;;;;-6.06;45.76;100968.92;79467;1297;3011747;-69
2023/01/08 10:07:24;;;;;;;;;;;;;;;-6.14;46.08;100970.37;78466;1297;3052602;-60
2023/01/08 10:09:51;;;;;;;16.80;5.20;;;;;;;-6.06;46.34;100961.59;79342;1300;3015830;-72
2023/01/08 10:12:27;;;;;;;18.60;5.00;;;;;;;-5.89;45.53;100957.31;79648;1299;3011347;-69
2023/01/08 10:14:58;;;;;;;15.80;5.20;;;;;;;-5.85;45.45;100957.43;78260;1300;3069696;-71
2023/01/08 10:17:26;;;;;;;11.60;4.60;;;;;;;-5.76;44.62;100955.63;79811;1295;3014710;-69
2023/01/08 10:19:55;;;;;;;10.40;4.00;;;;;;;-5.64;43.99;100959.57;78988;1300;3011688;-70
2023/01/08 10:22:23;;;;;;;15.70;5.50;;;;;;;-5.64;43.23;100958.88;79475;1297;3018520;-73
2023/01/08 10:25:02;;;;;;;11.80;5.20;;;;;;;-5.73;43.05;100952.13;79087;1298;3013028;-68
2023/01/08 10:27:30;;;;;;;13.00;4.90;;;;;;;-5.80;42.75;100948.02;78115;1296;3050167;-67
2023/01/08 10:30:04;;;;;;;11.90;5.40;;;;;;;-5.68;42.27;100948.52;79418;1300;3012915;-66
2023/01/08 10:32:33;;;;;;;16.60;6.10;;;;;;;-5.74;42.63;100951.27;78228;1298;3068884;-70
2023/01/08 10:35:04;;;;;;;12.60;5.30;;;;;;;-5.58;43.02;100948.31;79570;1295;3013743;-67
2023/01/08 10:37:43;;;;;;;15.40;6.00;;;;;;;-5.45;42.97;100948.02;78374;1298;3049412;-70
2023/01/08 10:40:29;;;;;;;13.30;6.00;;;;;;;-5.44;42.95;100951.60;78299;1298;3053732;-68
2023/01/08 10:43:03;;;;;;;13.10;5.30;;;;;;;-5.41;43.22;100948.45;78339;1302;3050778;-70
2023/01/08 10:45:30;;;;;;;13.90;5.30;;;;;;;-5.38;43.69;100945.79;79562;1298;3011632;-67
2023/01/08 10:47:59;;;;;;;15.20;5.40;;;;;;;-5.38;43.90;100941.70;78232;1298;3052824;-65
2023/01/08 10:50:30;;;;;;;12.20;5.30;;;;;;;-5.25;43.78;100949.58;79617;1298;3012833;-68
2023/01/08 10:53:17;;;;;;;11.00;5.10;;;;;;;-5.12;43.79;100946.67;78323;1296;3050424;-71
2023/01/08 10:55:44;;;;;;;10.40;5.00;;;;;;;-5.14;43.47;100948.31;78202;1295;3056787;-68
2023/01/08 10:58:14;;;;;;;17.10;6.00;;;;;;;-5.09;42.98;100951.38;79536;1297;3013035;-66
2023/01/08 11:00:43;;;;;;;16.60;5.10;;;;;;;-4.99;42.91;100946.69;78946;1300;3011745;-72
2023/01/08 11:03:38;;;;;;;14.20;5.50;;;;;;;-4.93;42.84;100953.66;79591;1298;3012840;-70
2023/01/08 11:06:09;;;;;;;;;;;;;;;-4.99;43.06;100954.70;78323;1295;3054231;-68
2023/01/08 11:08:36;;;;;;;19.80;5.70;;;;;;;-5.14;43.57;100949.70;79365;1296;3013630;-66
2023/01/08 11:11:04;;;;;;;17.90;6.10;;;;;;;-5.02;43.82;100957.71;78107;1298;3026411;-67
2023/01/08 11:13:30;;;;;;;15.10;5.50;;;;;;;-4.89;43.37;100959.27;79353;1296;3014916;-69
2023/01/08 11:16:06;;;;;;;13.60;5.50;;;;;;;-4.99;43.52;100961.05;79427;1294;3013167;-67
2023/01/08 11:18:46;;;;;;;16.30;6.50;;;;;;;-4.97;43.64;100958.20;78136;1300;3049519;-67
2023/01/08 11:21:29;;;;;;;14.00;6.30;;;;;;;-4.95;43.81;100961.50;78327;1310;3052110;-67
2023/01/08 11:24:23;;;;;;;;;;;;;;;-4.87;43.52;100961.35;78365;1298;3052088;-68
2023/01/08 11:27:08;;;;;;;;;;;;;;;-4.81;43.23;100956.73;78377;1300;3069643;-69
2023/01/08 11:29:50;;;;;;;19.10;5.20;;;;;;;-4.92;43.25;100957.30;78362;1298;3050881;-65
2023/01/08 11:32:26;;;;;;;16.90;5.80;;;;;;;-4.95;43.59;100964.03;78241;1300;3056539;-68
2023/01/08 11:35:16;;;;;;;13.00;5.40;;;;;;;-4.84;43.12;100958.88;78430;1297;3050402;-70
2023/01/08 11:37:52;;;;;;;10.70;5.00;;;;;;;-4.64;42.84;100961.25;78061;1300;3052484;-67
2023/01/08 11:40:43;;;;;;;15.80;6.40;;;;;;;-4.62;42.84;100960.11;78266;1298;3049919;-67
2023/01/08 11:43:18;;;;;;;13.70;6.10;;;;;;;-4.57;42.90;100957.34;78311;1300;3052909;-66
2023/01/08 11:46:09;;;;;;;14.80;5.50;;;;;;;-4.51;42.84;100951.66;78868;1300;3011843;-72
2023/01/08 11:48:46;;;;;;;17.00;5.80;;;;;;;-4.61;43.10;100948.52;78262;1297;3054881;-75
2023/01/08 11:51:38;;;;;;;15.70;7.10;;;;;;;-4.59;42.94;100947.71;78006;1297;3070321;-70
2023/01/08 11:54:28;;;;;;;11.80;4.60;;;;;;;-4.61;43.19;100951.74;78048;1299;3050414;-67
2023/01/08 11:57:07;;;;;;;12.40;5.60;;;;;;;-4.47;43.12;100947.32;78219;1298;3056534;-65
2023/01/08 11:59:51;;;;;;;13.40;5.50;;;;;;;-4.46;42.65;100945.30;78061;1300;3050057;-68
2023/01/08 12:02:51;;;;;;;15.30;5.90;;;;;;;-4.47;42.80;100949.36;78116;1300;3054061;-75
2023/01/08 12:05:40;;;;;;;9.80;4.80;;;;;;;-4.48;42.67;100949.52;78236;1299;3050816;-72
2023/01/08 12:08:17;;;;;;;11.90;5.30;;;;;;;-4.40;42.40;100950.04;78400;1300;3051512;-71
2023/01/08 12:11:10;;;;;;;11.60;5.60;;;;;;;-4.31;42.15;100954.20;78282;1310;3053520;-70
2023/01/08 12:13:57;;;;;;;15.90;5.70;;;;;;;-4.38;41.91;100949.92;78344;1295;3069050;-68
2023/01/08 12:16:51;;;;;;;11.10;5.10;;;;;;;-4.48;42.13;100945.58;78194;1300;3051386;-66
2023/01/08 12:19:45;;;;;;;12.40;5.20;;;;;;;-4.46;42.16;100941.01;78055;1298;3057557;-73
2023/01/08 12:22:22;;;;;;;14.30;4.80;;;;;;;-4.55;42.11;100936.00;78119;1297;3049261;-67
2023/01/08 12:25:00;;;;;;;10.70;4.80;;;;;;;-4.41;42.16;100948.14;78393;1296;3053859;-68
2023/01/08 12:27:56;;;;;;;13.00;5.40;;;;;;;-4.41;41.76;100953.95;78471;1298;3049616;-70
2023/01/08 12:30:53;;;;;;;13.70;5.00;;;;;;;-4.40;42.16;100956.19;78321;1300;3053033;-70
2023/01/08 12:33:27;;;;;;;12.70;5.90;;;;;;;-4.34;42.45;100947.11;78347;1299;3052983;-71
2023/01/08 12:35:54;;;;;;;12.00;5.30;;;;;;;-4.39;42.84;100940.33;79206;1298;3011639;-69
2023/01/08 12:38:39;;;;;;;10.70;5.00;;;;;;;-4.42;42.82;100940.90;78181;1298;3051664;-68
2023/01/08 12:41:12;;;;;;;13.80;6.40;;;;;;;-4.50;42.42;100947.58;78041;1298;3057770;-68
2023/01/08 12:44:00;;;;;;;13.70;4.80;;;;;;;-4.49;42.49;100947.60;79241;1296;3012799;-73
2023/01/08 12:46:33;;;;;;;15.10;5.50;;;;;;;-4.41;43.05;100945.91;77983;1298;3053948;-69
2023/01/08 12:48:59;;;;;;;10.80;5.30;;;;;;;-4.37;43.01;100945.84;79517;1295;3011745;-71
2023/01/08 12:51:35;;;;;;;16.40;5.60;;;;;;;-4.31;42.61;100952.84;78284;1300;3051928;-69
2023/01/08 12:54:06;;;;;;;16.70;5.10;;;;;;;-4.22;42.42;100958.51;78282;1297;3050773;-71
2023/01/08 12:56:53;;;;;;;11.40;5.80;;;;;;;-4.19;42.29;100957.89;79493;1300;3013326;-67
2023/01/08 12:59:47;;;;;;;15.70;5.40;;;;;;;-4.24;41.81;100957.10;78310;1298;3052330;-71
2023/01/08 13:02:24;;;;;;;7.60;4.30;;;;;;;-4.30;42.21;100962.27;78312;1296;3056311;-69
2023/01/08 13:04:52;;;;;;;15.10;5.40;;;;;;;-4.27;41.93;100962.52;78351;1298;3049456;-69
2023/01/08 13:07:26;;;;;;;12.20;4.40;;;;;;;-4.19;41.78;100960.45;79498;1298;3013771;-68
2023/01/08 13:10:06;;;;;;;14.90;5.40;;;;;;;-4.26;41.81;100953.80;78294;1300;3052776;-72
2023/01/08 13:12:39;;;;;;;10.20;4.90;;;;;;;-4.25;42.13;100951.58;78392;1300;3052519;-71
2023/01/08 13:15:06;;;;;;;11.80;4.90;;;;;;;-4.23;42.20;100955.23;79599;1300;3012760;-68
2023/01/08 13:17:34;;;;;;;15.40;6.10;;;;;;;-4.24;42.04;100956.41;78265;1296;3050442;-72
2023/01/08 13:20:02;;;;;;;14.40;5.60;;;;;;;-4.28;42.58;100953.23;79560;1300;3019055;-68
2023/01/08 13:22:30;;;;;;;15.10;5.70;;;;;;;-4.32;42.48;100954.00;79618;1296;3011387;-71
2023/01/08 13:25:13;;;;;;;15.60;6.20;;;;;;;-4.41;42.26;100948.30;78430;1295;3049937;-66
2023/01/08 13:27:41;;;;;;;;;;;;;;;-4.42;41.75;100945.57;78328;1298;3053493;-71
2023/01/08 13:30:30;;;;;;;16.70;6.10;;;;;;;-4.56;41.98;100945.73;79537;1298;3013035;-74
2023/01/08 13:32:58;;;;;;;18.30;6.90;;;;;;;-4.54;41.98;100953.29;78402;1300;3051168;-72
2023/01/08 13:35:30;;;;;;;17.20;7.20;;;;;;;-4.66;42.68;100957.96;79593;1295;3011571;-72
2023/01/08 13:38:12;;;;;;;21.20;7.70;;;;;;;-4.64;42.78;100962.10;78426;1295;3053317;-73
2023/01/08 13:40:43;;;;;;;17.90;6.60;;;;;;;-4.74;43.39;100962.86;78251;1300;3050444;-70
2023/01/08 13:43:21;;;;;;;18.00;7.20;;;;;;;-4.70;43.22;100960.41;79445;1298;3011419;-74
2023/01/08 13:45:53;;;;;;;16.50;6.90;;;;;;;-4.78;43.32;100959.04;78358;1298;3052395;-66
2023/01/08 13:48:21;;;;;;;17.70;6.20;;;;;;;-4.91;43.47;100960.05;79613;1298;3011601;-66
2023/01/08 13:50:50;;;;;;;12.30;5.50;;;;;;;-4.89;43.36;100962.15;78467;1300;3050792;-69
2023/01/08 13:53:19;;;;;;;15.60;6.40;;;;;;;-4.91;43.09;100962.77;79506;1296;3013265;-71
2023/01/08 13:55:58;;;;;;;16.10;5.20;;;;;;;-5.04;43.20;100960.21;79520;1296;3011787;-68
2023/01/08 13:58:27;;;;;;;14.30;5.40;;;;;;;-5.24;43.77;100961.05;78298;1297;3050061;-70
2023/01/08 14:00:55;;;;;;;12.30;4.80;;;;;;;-5.32;43.97;100959.45;79573;1297;3013599;-65
2023/01/08 14:03:26;;;;;;;8.40;4.50;;;;;;;-5.47;44.77;100959.88;79813;1295;3011596;-67
2023/01/08 14:06:10;;;;;;;20.80;5.40;;;;;;;-5.71;45.12;100958.16;78182;1297;3050477;-67
2023/01/08 14:08:54;;;;;;;12.90;5.10;;;;;;;-5.77;45.88;100964.50;78186;1300;3057357;-66
2023/01/08 14:11:35;;;;;;;10.70;4.10;;;;;;;-5.88;46.29;100960.41;78866;1295;3049421;-67
2023/01/08 14:14:03;;;;;;;12.30;4.90;;;;;;;-5.98;47.09;100963.88;78238;1296;3052125;-68
2023/01/08 14:16:32;;;;;;;17.10;5.50;;;;;;;-6.06;47.65;100964.14;79485;1301;3013203;-69
2023/01/08 14:18:59;;;;;;;19.90;7.20;;;;;;;-6.20;48.07;100969.17;79396;1300;3011659;-69
2023/01/08 14:21:27;;;;;;;16.10;5.40;;;;;;;-6.22;48.48;100971.16;78180;1300;3068390;-66
2023/01/08 14:23:54;;;;;;;17.60;6.80;;;;;;;-6.29;48.59;100972.30;79418;1301;3018565;-69
2023/01/08 14:26:35;;;;;;;20.50;7.40;;;;;;;-6.41;49.22;100971.09;79776;1297;3012760;-68
2023/01/08 14:29:03;;;;;;;15.50;6.70;;;;;;;-6.42;49.04;100967.98;78041;1300;3054795;-66
2023/01/08 14:31:30;;;;;;;14.00;6.60;;;;;;;-6.42;49.38;100963.20;79417;1300;3013080;-66
2023/01/08 14:33:57;;;;;;;17.10;6.60;;;;;;;-6.48;49.95;100961.31;79230;1300;3011635;-67
2023/01/08 14:36:25;;;;;;;25.40;8.10;;;;;;;-6.51;49.78;100958.80;78286;1300;3067662;-68
2023/01/08 14:38:52;;;;;;;22.20;8.30;;;;;;;-6.57;50.40;100957.42;79481;1298;3020394;-72
2023/01/08 14:42:41;;;;;;;22.40;8.60;;;;;;;-6.66;50.79;100959.36;79514;1297;3011681;-65
2023/01/08 14:44:22;;;;;;;17.20;7.70;;;;;;;-6.75;51.22;100955.13;78164;1295;3053052;-69
2023/01/08 14:46:48;;;;;;;26.60;9.30;;;;;;;-6.77;51.05;100954.56;79381;1298;3011962;-65
2023/01/08 14:49:21;;;;;;;20.10;7.40;;;;;;;-6.89;51.31;100946.15;79241;1300;3012906;-67
2023/01/08 14:51:48;;;;;;;21.70;7.60;;;;;;;-6.93;51.93;100941.76;78820;1290;3069133;-71
2023/01/08 14:54:22;;;;;;;21.00;8.60;;;;;;;-6.97;51.69;100944.17;79547;1296;3013689;-71
2023/01/08 14:56:51;;;;;;;26.30;9.30;;;;;;;-6.93;52.38;100941.58;78443;1296;3049008;-72
2023/01/08 14:59:19;;;;;;;22.90;9.10;;;;;;;-7.04;52.24;100940.50;79862;1290;3015590;-65
2023/01/08 15:01:53;;;;;;;27.60;9.30;;;;;;;-7.11;52.62;100943.19;79096;1294;3013238;-66
2023/01/08 15:04:20;;;;;;;21.80;8.40;;;;;;;-7.23;53.28;100949.59;79594;1291;3011761;-67
2023/01/08 15:06:49;;;;;;;21.80;9.60;;;;;;;-7.25;53.72;100951.89;78559;1293;3053120;-70
2023/01/08 15:09:24;;;;;;;22.90;8.30;;;;;;;-7.29;53.84;100955.66;79855;1291;3013318;-72
2023/01/08 15:11:53;;;;;;;21.10;7.60;;;;;;;-7.24;53.73;100961.77;78554;1293;3057034;-69
2023/01/08 15:14:23;;;;;;;19.20;7.40;;;;;;;-7.26;53.90;100964.63;79748;1294;3011705;-66
2023/01/08 15:16:53;;;;;;;18.30;7.60;;;;;;;-7.33;54.46;100970.14;78396;1294;3025810;-72
2023/01/08 15:19:24;;;;;;;19.00;7.00;;;;;;;-7.31;54.19;100967.70;79934;1290;3012873;-63
2023/01/08 15:21:54;;;;;;;18.80;7.60;;;;;;;-7.43;55.02;100970.84;78689;1294;3052785;-73
2023/01/08 15:24:28;;;;;;;18.20;8.20;;;;;;;-7.46;54.98;100970.21;79720;1294;3013202;-68
2023/01/08 15:26:56;;;;;;;18.40;8.00;;;;;;;-7.46;55.48;100970.91;78567;1297;3068078;-70
2023/01/08 15:29:32;;;;;;;21.70;8.40;;;;;;;-7.37;55.09;100965.60;79691;1292;3013109;-65
2023/01/08 15:32:13;;;;;;;20.40;8.60;;;;;;;-7.45;55.32;100962.73;78467;1294;3050244;-66
2023/01/08 15:34:43;;;;;;;20.10;7.90;;;;;;;-7.46;55.53;100966.11;78506;1294;3053387;-70
2023/01/08 15:37:10;;;;;;;23.10;10.00;;;;;;;-7.57;55.68;100965.38;79823;1294;3013307;-67
2023/01/08 15:39:36;;;;;;;26.60;9.60;;;;;;;-7.52;55.56;100965.23;79800;1292;3011657;-67
2023/01/08 15:45:17;;;;;;;21.20;8.30;;;;;;;-7.69;55.93;100967.83;78925;1291;3050951;-71
2023/01/08 15:47:43;;;;;;;22.90;8.80;;;;;;;-7.69;56.01;100964.24;80223;1292;3013004;-68
2023/01/08 15:50:10;;;;;;;21.60;8.60;;;;;;;-7.74;56.27;100967.13;79962;1291;3011904;-66
2023/01/08 15:52:39;;;;;;;21.10;8.50;;;;;;;-7.80;56.18;100969.10;78982;1295;3049495;-67
2023/01/08 15:55:06;;;;;;;25.50;8.60;;;;;;;-7.75;56.66;100966.23;79949;1294;3013398;-72
2023/01/08 15:57:33;;;;;;;25.20;10.00;;;;;;;-7.77;56.47;100965.48;79708;1295;3013038;-63
2023/01/08 16:00:01;;;;;;;20.10;8.30;;;;;;;-7.75;56.84;100965.23;78371;1294;3052093;-64
2023/01/08 16:02:28;;;;;;;29.60;10.30;;;;;;;-7.80;56.77;100967.42;79647;1294;3019046;-63
2023/01/08 16:04:55;;;;;;;24.10;10.40;;;;;;;-7.87;57.26;100969.88;79633;1295;3011711;-69
2023/01/08 16:07:23;;;;;;;23.40;8.60;;;;;;;-7.91;57.46;100966.48;78472;1294;3026010;-58
2023/01/08 16:09:49;;;;;;;21.60;9.20;;;;;;;-7.99;57.37;100957.52;79702;1292;3013241;-70
2023/01/08 16:12:16;;;;;;;22.20;9.40;;;;;;;-7.98;57.21;100954.48;79855;1294;3012817;-67
2023/01/08 16:14:45;;;;;;;27.40;8.90;;;;;;;-8.02;57.25;100951.27;78619;1294;3052220;-71
2023/01/08 16:17:12;;;;;;;27.80;9.40;;;;;;;-8.09;57.25;100955.43;79824;1294;3013680;-68
2023/01/08 16:19:38;;;;;;;28.00;9.00;;;;;;;-8.13;57.02;100955.44;79575;1296;3011770;-70
2023/01/08 16:22:07;;;;;;;25.90;8.60;;;;;;;-8.27;57.55;100962.39;78666;1295;3050048;-70
2023/01/08 16:24:34;;;;;;;19.70;7.80;;;;;;;-8.31;58.04;100968.01;79963;1294;3013855;-70
2023/01/08 16:27:00;;;;;;;20.90;7.60;;;;;;;-8.29;57.32;100974.72;79760;1294;3011690;-68
2023/01/08 16:29:29;;;;;;;20.20;7.30;;;;;;;-8.27;57.46;100976.82;78608;1292;3051582;-71
2023/01/08 16:31:56;;;;;;;18.10;7.10;;;;;;;-8.35;57.43;100970.54;79992;1292;3011715;-67
2023/01/08 16:34:23;;;;;;;26.50;8.00;;;;;;;-8.43;57.76;100979.94;79627;1294;3013381;-70
2023/01/08 16:36:51;;;;;;;25.80;7.20;;;;;;;-8.48;58.00;100982.14;78441;1294;3050346;-69
2023/01/08 16:39:18;;;;;;;13.50;6.30;;;;;;;-8.56;58.11;100983.17;79878;1293;3012975;-70
2023/01/08 16:41:48;;;;;;;18.80;7.50;;;;;;;-8.61;58.46;100987.88;79941;1296;3011559;-67
2023/01/08 16:44:20;;;;;;;21.20;7.10;;;;;;;-8.56;58.43;100986.92;78732;1294;3052187;-69
2023/01/08 16:46:47;;;;;;;19.70;7.60;;;;;;;-8.49;58.24;100985.15;80012;1293;3012669;-69
2023/01/08 16:49:14;;;;;;;16.10;6.40;;;;;;;-8.58;58.38;100986.51;79857;1295;3011750;-67
2023/01/08 16:51:43;;;;;;;21.80;7.70;;;;;;;-8.65;58.56;100989.10;78708;1296;3049529;-64
2023/01/08 16:54:13;;;;;;;16.10;7.10;;;;;;;-8.67;58.75;100986.30;79902;1294;3013338;-71
2023/01/08 16:56:41;;;;;;;18.40;7.40;;;;;;;-8.62;58.36;100988.02;78620;1299;3068769;-67
2023/01/08 16:59:08;;;;;;;19.90;7.20;;;;;;;-8.56;58.38;100989.64;79874;1294;3013159;-63
2023/01/08 17:01:36;;;;;;;18.20;6.40;;;;;;;-8.53;58.10;100990.77;80111;1290;3013432;-68
2023/01/08 17:04:04;;;;;;;22.00;7.20;;;;;;;-8.55;58.12;100990.52;78842;1290;3052103;-64
2023/01/08 17:06:30;;;;;;;20.40;7.50;;;;;;;-8.52;58.28;100986.75;79653;1294;3013527;-68
2023/01/08 17:09:03;;;;;;;20.60;7.20;;;;;;;-8.56;58.38;100987.06;79446;1294;3011891;-68
2023/01/08 17:11:31;;;;;;;21.20;8.00;;;;;;;-8.57;58.56;100980.58;79996;1295;3012742;-66
2023/01/08 17:13:57;;;;;;;17.00;8.00;;;;;;;-8.58;58.55;100976.95;79843;1292;3013146;-69
2023/01/08 17:16:25;;;;;;;19.50;7.90;;;;;;;-8.60;58.52;100979.95;78904;1293;3055323;-72
2023/01/08 17:18:51;;;;;;;23.50;8.50;;;;;;;-8.60;58.60;100980.80;79978;1295;3013245;-69
2023/01/08 17:21:19;;;;;;;21.50;8.80;;;;;;;-8.69;59.16;100980.77;79977;1289;3011810;-68
2023/01/08 17:23:47;;;;;;;24.70;9.00;;;;;;;-8.78;59.19;100979.04;78683;1295;3052251;-68
2023/01/08 17:26:16;;;;;;;25.80;9.80;;;;;;;-8.85;59.38;100979.76;79911;1292;3013741;-67
2023/01/08 17:28:43;;;;;;;33.00;10.60;;;;;;;-8.86;59.40;100979.20;79749;1292;3011671;-71
2023/01/08 17:31:13;;;;;;;17.80;7.30;;;;;;;-8.84;59.51;100975.06;78744;1295;3056655;-74
2023/01/08 17:33:40;;;;;;;20.60;7.30;;;;;;;-8.90;59.50;100971.03;79969;1291;3013648;-68
2023/01/08 17:36:14;;;;;;;24.40;8.50;;;;;;;-8.97;59.49;100976.56;79849;1292;3013279;-65
2023/01/08 17:38:45;;;;;;;24.00;8.40;;;;;;;-9.00;59.89;100980.84;78554;1294;3051639;-66
2023/01/08 17:42:23;;;;;;;18.00;7.60;;;;;;;-9.03;60.16;100987.17;79893;1294;3011578;-67
2023/01/08 17:44:00;;;;;;;27.50;8.40;;;;;;;-9.00;60.12;100991.36;78693;1294;3068371;-66
2023/01/08 17:46:30;;;;;;;19.70;7.60;;;;;;;-8.97;59.78;100997.10;79886;1304;3011608;-68
2023/01/08 17:48:58;;;;;;;17.40;7.30;;;;;;;-9.02;59.93;100997.20;78666;1294;3028370;-69
2023/01/08 17:51:25;;;;;;;18.80;7.40;;;;;;;-8.98;60.04;100999.59;80002;1295;3013439;-69
2023/01/08 17:53:51;;;;;;;17.70;7.90;;;;;;;-8.99;60.08;100999.55;79851;1294;3013663;-70
2023/01/08 17:56:19;;;;;;;17.50;8.00;;;;;;;-8.98;59.99;101001.95;78450;1294;3026257;-65
2023/01/08 17:58:49;;;;;;;17.70;6.30;;;;;;;-8.96;60.16;100996.63;79929;1294;3013525;-68
2023/01/08 18:01:17;;;;;;;13.10;6.50;;;;;;;-8.97;59.97;100996.40;78736;1293;3051152;-66
2023/01/08 18:03:44;;;;;;;18.50;6.60;;;;;;;-8.92;59.77;100996.63;79938;1293;3020828;-69
2023/01/08 18:06:11;;;;;;;14.90;7.40;;;;;;;-8.87;59.57;100995.66;79807;1294;3011768;-72
2023/01/08 18:08:40;;;;;;;16.30;7.40;;;;;;;-8.90;59.69;100995.20;78630;1295;3026662;-68
2023/01/08 18:11:09;;;;;;;19.20;7.60;;;;;;;-8.95;59.88;100988.52;79723;1296;3011465;-72
2023/01/08 18:13:38;;;;;;;20.40;8.00;;;;;;;-9.13;60.44;100988.75;78598;1295;3029362;-68
2023/01/08 18:16:06;;;;;;;17.50;7.00;;;;;;;-9.16;60.61;100985.77;79814;1295;3018632;-69
2023/01/08 18:18:34;;;;;;;20.70;6.70;;;;;;;-9.12;60.35;100985.42;79785;1291;3011828;-70
2023/01/08 18:21:02;;;;;;;9.30;2.70;;;;;;;-9.18;60.72;100982.11;78680;1295;3048860;-71
2023/01/08 18:23:28;;;;;;;16.00;6.30;;;;;;;-8.52;59.80;100975.83;79764;1292;3014595;-67
2023/01/08 18:25:56;;;;;;;21.30;7.80;;;;;;;-7.82;58.08;100977.73;79722;1293;3011885;-69
2023/01/08 18:28:24;;;;;;;20.80;7.90;;;;;;;-7.67;56.56;100976.77;78578;1297;3053658;-67
2023/01/08 18:30:50;;;;;;;24.50;8.90;;;;;;;-7.66;56.94;100981.54;79670;1293;3013553;-69
2023/01/08 18:33:18;;;;;;;22.40;9.10;;;;;;;-7.82;57.14;100984.69;79809;1292;3011595;-66
2023/01/08 18:35:46;;;;;;;19.60;8.30;;;;;;;-8.06;57.17;100988.52;78424;1294;3049601;-68
2023/01/08 18:38:14;;;;;;;18.50;8.50;;;;;;;-8.21;57.94;100996.11;79649;1303;3013185;-69
2023/01/08 18:40:42;;;;;;;22.10;9.90;;;;;;;-8.35;57.98;100994.20;79688;1294;3011914;-68
2023/01/08 18:43:10;;;;;;;24.80;9.10;;;;;;;-8.50;57.94;100994.48;78611;1296;3053434;-67
2023/01/08 18:45:38;;;;;;;17.70;8.50;;;;;;;-8.56;58.02;100986.73;79814;1294;3013034;-67